Time;durP1;ratioP1;P1;durP2;ratioP2;P2;SDS_P1;SDS_P2;PMS_P1;PMS_P2;Temp;Humidity;BMP_temperature;BMP_pressure;BME280_temperature;BME280_humidity;BME280_pressure;Samples;Min_cycle;Max_cycle;Signal;HPM_P1;HPM_P2
2022/07/01 00:02:01;;;;;;;8.43;6.83;;;;;;;22.13;75.54;98067.00;1754324;81;20875;-61
2022/07/01 00:04:28;;;;;;;9.88;7.20;;;;;;;22.12;75.74;98066.20;1754311;81;20956;-61
2022/07/01 00:06:57;;;;;;;8.58;6.90;;;;;;;22.10;75.91;98070.45;1752821;81;20912;-61
2022/07/01 00:09:24;;;;;;;8.28;6.90;;;;;;;22.05;76.10;98066.65;1754423;81;20935;-61
2022/07/01 00:11:50;;;;;;;7.78;6.97;;;;;;;22.05;76.18;98070.74;1754413;81;21084;-61
2022/07/01 00:14:17;;;;;;;7.78;7.08;;;;;;;22.04;76.25;98076.00;1754371;81;20907;-61
2022/07/01 00:16:44;;;;;;;8.55;7.22;;;;;;;22.02;76.33;98075.58;1754393;81;21066;-61
2022/07/01 00:19:12;;;;;;;7.65;6.90;;;;;;;22.00;76.45;98076.52;1754287;81;20884;-61
2022/07/01 00:21:39;;;;;;;9.53;7.30;;;;;;;21.97;76.56;98078.60;1754394;81;20857;-61
2022/07/01 00:24:06;;;;;;;10.13;6.80;;;;;;;21.96;76.71;98081.10;1754257;81;21103;-61
2022/07/01 00:26:33;;;;;;;8.93;6.87;;;;;;;21.94;76.79;98084.20;1754253;81;20958;-61
2022/07/01 00:29:00;;;;;;;7.97;7.17;;;;;;;21.94;76.84;98080.68;1753976;81;21400;-61
2022/07/01 00:31:27;;;;;;;9.05;7.35;;;;;;;21.91;76.89;98073.22;1756971;81;20970;-61
2022/07/01 00:33:53;;;;;;;7.62;6.55;;;;;;;21.88;77.06;98073.95;1757101;81;20884;-61
2022/07/01 00:36:19;;;;;;;8.28;6.37;;;;;;;21.81;77.15;98071.84;1756975;81;21217;-62
2022/07/01 00:38:47;;;;;;;10.70;6.65;;;;;;;21.75;77.47;98074.09;1757001;81;20986;-62
2022/07/01 00:41:13;;;;;;;15.30;6.80;;;;;;;21.71;77.74;98080.63;1757309;81;21399;-62
2022/07/01 00:43:40;;;;;;;9.38;7.85;;;;;;;21.68;77.92;98076.68;1757254;81;21427;-62
2022/07/01 00:46:07;;;;;;;10.43;6.65;;;;;;;21.69;78.02;98072.78;1757190;81;20939;-61
2022/07/01 00:48:33;;;;;;;9.95;7.33;;;;;;;21.71;78.10;98070.52;1756959;81;21102;-61
2022/07/01 00:51:02;;;;;;;7.42;6.70;;;;;;;21.70;78.06;98066.77;1735016;81;21010;-62
2022/07/01 00:53:29;;;;;;;8.63;6.45;;;;;;;21.68;78.13;98075.31;1760985;81;20943;-61
2022/07/01 00:55:56;;;;;;;9.95;6.80;;;;;;;21.65;78.30;98065.70;1757241;81;21470;-61
2022/07/01 00:58:23;;;;;;;7.37;6.60;;;;;;;21.64;78.40;98060.84;1757077;81;20903;-61
2022/07/01 01:00:50;;;;;;;7.65;6.90;;;;;;;21.65;78.51;98061.03;1710634;81;21225;-61
2022/07/01 01:03:18;;;;;;;10.85;7.28;;;;;;;21.67;78.47;98057.37;1756844;81;20943;-61
2022/07/01 01:05:44;;;;;;;8.43;6.75;;;;;;;21.68;78.43;98056.23;1757026;81;20919;-62
2022/07/01 01:08:11;;;;;;;10.05;7.10;;;;;;;21.67;78.44;98056.58;1756935;81;20845;-62
2022/07/01 01:10:38;;;;;;;8.85;6.70;;;;;;;21.63;78.61;98057.89;1756970;81;20974;-62
2022/07/01 01:13:04;;;;;;;7.95;6.80;;;;;;;21.61;78.72;98051.22;1756939;81;21103;-62
2022/07/01 01:15:31;;;;;;;7.62;6.85;;;;;;;21.60;78.87;98051.79;1756982;81;20879;-63
2022/07/01 01:17:58;;;;;;;7.33;6.70;;;;;;;21.60;79.04;98050.42;1756925;81;20955;-62
2022/07/01 01:20:24;;;;;;;7.15;6.55;;;;;;;21.59;79.05;98050.23;1757197;81;21525;-62
2022/07/01 01:22:51;;;;;;;10.93;7.60;;;;;;;21.57;79.16;98059.34;1757237;81;21399;-62
2022/07/01 01:25:18;;;;;;;7.78;7.03;;;;;;;21.56;79.24;98053.66;1757039;81;21102;-62
2022/07/01 01:27:44;;;;;;;7.45;6.47;;;;;;;21.55;79.35;98052.67;1756961;81;20951;-62
2022/07/01 01:30:11;;;;;;;7.80;7.00;;;;;;;21.51;79.52;98057.24;1756971;81;20971;-62
2022/07/01 01:32:40;;;;;;;7.83;6.62;;;;;;;21.45;79.77;98059.48;1757002;81;20939;-62
2022/07/01 01:35:09;;;;;;;7.67;6.78;;;;;;;21.44;80.04;98063.34;1757027;81;20931;-62
2022/07/01 01:37:35;;;;;;;8.93;7.05;;;;;;;21.41;80.16;98061.33;1757002;81;21742;-62
2022/07/01 01:40:03;;;;;;;7.50;6.40;;;;;;;21.37;80.33;98068.66;1756951;81;20879;-62
2022/07/01 01:42:30;;;;;;;7.22;6.60;;;;;;;21.30;80.68;98065.78;1756891;81;20919;-62
2022/07/01 01:44:57;;;;;;;8.90;7.00;;;;;;;21.26;80.94;98064.94;1756899;81;20931;-62
2022/07/01 01:47:23;;;;;;;9.53;6.67;;;;;;;21.22;81.21;98068.14;1757048;81;20871;-62
2022/07/01 01:49:50;;;;;;;7.85;6.70;;;;;;;21.20;81.40;98065.58;1757015;81;21101;-61
2022/07/01 01:52:16;;;;;;;8.10;6.90;;;;;;;21.21;81.57;98069.30;1756842;81;20908;-61
2022/07/01 01:54:43;;;;;;;10.13;6.92;;;;;;;21.22;81.53;98066.77;1756997;81;20867;-61
2022/07/01 01:57:10;;;;;;;9.75;6.60;;;;;;;21.20;81.59;98073.16;1756903;81;20931;-61
2022/07/01 01:59:36;;;;;;;9.03;6.53;;;;;;;21.19;81.67;98072.95;1757042;81;20896;-61
2022/07/01 02:02:03;;;;;;;7.55;6.85;;;;;;;21.15;81.84;98064.50;1756879;81;21090;-61
2022/07/01 02:04:30;;;;;;;8.15;6.90;;;;;;;21.14;81.99;98066.42;1756959;81;21387;-61
2022/07/01 02:06:57;;;;;;;9.03;6.60;;;;;;;21.10;82.13;98066.93;1757237;81;21450;-61
2022/07/01 02:09:25;;;;;;;11.55;6.95;;;;;;;21.13;82.15;98068.92;1756972;81;21805;-61
2022/07/01 02:11:52;;;;;;;7.70;6.78;;;;;;;21.13;82.12;98077.89;1756916;81;20879;-61
2022/07/01 02:14:19;;;;;;;9.40;6.58;;;;;;;21.10;82.20;98079.19;1756891;81;21333;-61
2022/07/01 02:16:45;;;;;;;7.37;6.70;;;;;;;21.07;82.33;98073.08;1757261;81;21449;-61
2022/07/01 02:19:12;;;;;;;7.90;7.20;;;;;;;21.03;82.50;98068.11;1757084;81;21340;-61
2022/07/01 02:21:38;;;;;;;8.58;7.35;;;;;;;21.02;82.65;98071.97;1757099;81;21479;-61
2022/07/01 02:24:06;;;;;;;7.45;6.75;;;;;;;21.01;82.77;98060.28;1756976;81;20982;-62
2022/07/01 02:29:12;;;;;;;10.15;7.60;;;;;;;20.94;82.89;98074.30;1757080;81;21412;-61
2022/07/01 02:31:39;;;;;;;10.30;7.28;;;;;;;20.89;83.11;98071.88;1756933;81;20908;-61
2022/07/01 02:34:05;;;;;;;9.28;7.37;;;;;;;20.87;83.28;98076.30;1756976;81;21011;-61
2022/07/01 02:36:31;;;;;;;8.13;7.33;;;;;;;20.87;83.39;98074.14;1757124;81;21415;-62
2022/07/01 02:38:58;;;;;;;8.28;7.47;;;;;;;20.86;83.49;98078.83;1756898;81;21169;-61
2022/07/01 02:41:25;;;;;;;7.65;6.95;;;;;;;20.85;83.55;98078.59;1756924;81;20998;-61
2022/07/01 02:43:51;;;;;;;11.15;7.55;;;;;;;20.85;83.68;98077.80;1756851;81;20892;-62
2022/07/01 02:46:18;;;;;;;8.90;7.17;;;;;;;20.88;83.73;98086.63;1756879;81;20954;-61
2022/07/01 02:48:45;;;;;;;8.53;7.70;;;;;;;20.87;83.67;98091.27;1757035;81;20970;-61
2022/07/01 02:51:11;;;;;;;8.68;7.75;;;;;;;20.86;83.67;98091.64;1757051;81;21070;-60
2022/07/01 02:53:38;;;;;;;7.92;7.17;;;;;;;20.87;83.66;98098.64;1756970;81;20993;-60
2022/07/01 02:56:05;;;;;;;8.45;7.47;;;;;;;20.88;83.59;98097.52;1757216;81;21478;-60
2022/07/01 02:58:31;;;;;;;9.30;8.10;;;;;;;20.88;83.65;98102.96;1757135;81;20856;-60
2022/07/01 03:00:59;;;;;;;8.80;8.00;;;;;;;20.88;83.65;98108.41;1757164;81;20919;-60
2022/07/01 03:03:25;;;;;;;8.28;7.50;;;;;;;20.85;83.74;98110.47;1757022;81;21188;-61
2022/07/01 03:05:51;;;;;;;8.95;7.92;;;;;;;20.83;83.89;98108.67;1757084;81;21407;-60
2022/07/01 03:08:19;;;;;;;9.05;7.75;;;;;;;20.81;84.00;98105.52;1757014;81;20844;-61
2022/07/01 03:10:46;;;;;;;7.62;6.92;;;;;;;20.80;84.17;98106.66;1757218;81;21466;-61
2022/07/01 03:13:13;;;;;;;8.20;7.42;;;;;;;20.81;84.24;98108.24;1757367;81;21387;-61
2022/07/01 03:15:40;;;;;;;12.43;7.45;;;;;;;20.81;84.37;98109.60;1757124;81;21109;-61
2022/07/01 03:18:06;;;;;;;7.58;6.87;;;;;;;20.83;84.41;98105.95;1756987;81;20971;-61
2022/07/01 03:20:34;;;;;;;14.78;8.00;;;;;;;20.84;84.47;98108.34;1757132;81;20903;-60
2022/07/01 03:23:00;;;;;;;7.62;6.85;;;;;;;20.83;84.50;98106.75;1757045;81;20899;-61
2022/07/01 03:25:27;;;;;;;11.43;7.80;;;;;;;20.83;84.59;98106.75;1757034;81;20978;-61
2022/07/01 03:27:54;;;;;;;7.85;7.05;;;;;;;20.82;84.66;98113.32;1757119;81;21229;-60
2022/07/01 03:30:20;;;;;;;8.83;7.35;;;;;;;20.86;84.81;98116.14;1756939;81;20919;-61
2022/07/01 03:32:47;;;;;;;8.25;7.03;;;;;;;20.88;84.79;98113.84;1757103;81;20879;-61
2022/07/01 03:37:58;;;;;;;8.38;7.55;;;;;;;20.96;84.68;98118.33;1757283;81;20982;-61
2022/07/01 03:40:25;;;;;;;8.18;7.45;;;;;;;21.01;84.54;98123.47;1757022;81;21087;-61
2022/07/01 03:42:51;;;;;;;7.72;6.92;;;;;;;21.05;84.52;98132.00;1757008;81;20900;-61
2022/07/01 03:45:18;;;;;;;7.83;7.12;;;;;;;21.10;84.35;98125.48;1757106;81;20880;-61
2022/07/01 03:47:49;;;;;;;7.75;7.05;;;;;;;21.16;84.14;98128.70;1757086;81;21010;-60
2022/07/01 03:50:23;;;;;;;8.30;7.50;;;;;;;21.22;84.01;98126.70;1757033;81;21015;-61
2022/07/01 03:54:29;;;;;;;9.80;6.95;;;;;;;21.24;83.73;98125.80;1757034;81;21058;-61
2022/07/01 03:55:18;;;;;;;7.30;6.70;;;;;;;21.29;83.60;98128.81;1754004;81;20888;-61
2022/07/01 03:57:44;;;;;;;8.03;7.22;;;;;;;21.34;83.37;98131.25;1757298;81;21522;-61
2022/07/01 04:00:12;;;;;;;8.00;6.95;;;;;;;21.35;83.30;98140.42;1756928;81;20895;-61
2022/07/01 04:02:39;;;;;;;8.18;7.37;;;;;;;21.43;83.21;98138.05;1756990;81;20954;-61
2022/07/01 04:05:06;;;;;;;9.68;7.03;;;;;;;21.50;82.90;98140.16;1757399;81;21451;-61
2022/07/01 04:07:34;;;;;;;10.93;7.20;;;;;;;21.55;82.64;98143.97;1757040;81;20915;-62
2022/07/01 04:10:00;;;;;;;10.43;7.05;;;;;;;21.60;82.36;98142.29;1761013;81;20880;-62
2022/07/01 04:12:27;;;;;;;9.28;6.72;;;;;;;21.61;82.07;98143.31;1757095;81;21054;-61
2022/07/01 04:14:53;;;;;;;7.87;7.12;;;;;;;21.65;81.87;98148.26;1757120;81;21403;-61
2022/07/01 04:17:20;;;;;;;8.48;7.30;;;;;;;21.68;81.74;98139.38;1756997;81;21218;-61
2022/07/01 04:19:46;;;;;;;8.45;7.05;;;;;;;21.71;81.64;98141.39;1757043;81;20923;-61
2022/07/01 04:25:00;;;;;;;9.23;7.92;;;;;;;21.76;81.14;98135.63;1757086;81;20927;-61
2022/07/01 04:27:27;;;;;;;7.62;6.90;;;;;;;21.81;81.04;98134.55;1757368;81;21525;-60
2022/07/01 04:29:53;;;;;;;7.90;7.10;;;;;;;21.85;80.99;98131.93;1756603;81;21229;-61
2022/07/01 04:32:20;;;;;;;9.45;7.22;;;;;;;21.89;80.87;98134.14;1754351;81;21376;-61
2022/07/01 04:34:46;;;;;;;7.72;6.97;;;;;;;21.95;80.76;98139.53;1754302;81;20872;-61
2022/07/01 04:37:13;;;;;;;9.90;7.03;;;;;;;21.98;80.48;98141.52;1754473;81;20888;-61
2022/07/01 04:39:39;;;;;;;9.90;6.35;;;;;;;22.02;80.28;98135.58;1754415;81;20880;-61
2022/07/01 04:42:06;;;;;;;7.53;6.58;;;;;;;22.06;79.96;98133.13;1754285;81;21104;-61
2022/07/01 04:44:36;;;;;;;6.83;6.22;;;;;;;22.10;79.65;98134.55;1754321;81;20915;-61
2022/07/01 04:47:04;;;;;;;9.18;6.78;;;;;;;22.17;79.37;98130.58;1754297;81;20928;-61
2022/07/01 04:49:31;;;;;;;8.83;6.50;;;;;;;22.23;79.02;98135.97;1754265;81;20927;-61
2022/07/01 04:51:58;;;;;;;7.97;7.17;;;;;;;22.28;78.46;98131.58;1754424;81;21063;-61
2022/07/01 04:54:25;;;;;;;10.20;6.67;;;;;;;22.33;78.45;98133.98;1754248;81;21250;-61
2022/07/01 04:56:52;;;;;;;7.37;6.62;;;;;;;22.37;78.29;98138.95;1754219;81;20880;-62
2022/07/01 04:59:19;;;;;;;8.18;6.55;;;;;;;22.41;78.27;98139.78;1754378;81;20911;-62
2022/07/01 05:01:51;;;;;;;7.00;6.30;;;;;;;22.47;78.25;98145.14;1754265;81;20959;-62
2022/07/01 05:04:17;;;;;;;7.30;6.45;;;;;;;22.51;78.02;98135.09;1753961;81;20950;-62
2022/07/01 05:06:44;;;;;;;9.13;6.95;;;;;;;22.56;77.60;98140.25;1754274;81;21093;-61
2022/07/01 05:09:11;;;;;;;8.45;7.00;;;;;;;22.59;77.50;98139.50;1754203;81;20907;-61
2022/07/01 05:11:38;;;;;;;8.15;6.50;;;;;;;22.63;77.34;98143.13;1754626;81;20919;-61
2022/07/01 05:14:07;;;;;;;9.53;7.25;;;;;;;22.67;77.13;98142.60;1754407;81;21390;-61
2022/07/01 05:16:34;;;;;;;8.65;7.35;;;;;;;22.71;77.19;98150.27;1754396;81;21420;-61
2022/07/01 05:22:00;;;;;;;8.93;7.47;;;;;;;22.75;76.95;98153.83;1754317;81;21494;-61
2022/07/01 05:24:31;;;;;;;8.08;7.28;;;;;;;22.80;76.98;98148.06;1754248;81;20916;-61
2022/07/01 05:27:00;;;;;;;8.33;7.47;;;;;;;22.84;77.20;98151.66;1754244;81;20974;-62
2022/07/01 05:29:26;;;;;;;8.58;7.00;;;;;;;22.90;77.06;98150.19;1754255;81;21537;-59
2022/07/01 05:31:54;;;;;;;11.30;7.53;;;;;;;22.96;77.06;98152.80;1762665;78;21380;-59
2022/07/01 05:34:21;;;;;;;11.48;8.03;;;;;;;23.02;76.90;98150.55;1788026;79;21372;-59
2022/07/01 05:36:48;;;;;;;10.82;8.43;;;;;;;23.08;76.93;98149.09;1742064;81;21034;-60
2022/07/01 05:39:15;;;;;;;8.25;7.45;;;;;;;23.13;76.75;98150.92;1742709;82;21490;-60
2022/07/01 05:41:41;;;;;;;9.95;7.30;;;;;;;23.22;76.75;98151.25;1688257;83;21008;-63
2022/07/01 05:44:08;;;;;;;8.90;7.03;;;;;;;23.32;76.62;98151.98;1787120;79;21204;-66
2022/07/01 05:46:36;;;;;;;8.43;7.33;;;;;;;23.45;75.97;98146.52;1726555;82;20955;-64
2022/07/01 05:49:03;;;;;;;8.20;7.40;;;;;;;23.55;75.52;98151.34;1750243;80;32805;-64
2022/07/01 05:51:31;;;;;;;11.48;7.20;;;;;;;23.63;75.13;98147.52;1717502;81;21100;-61
2022/07/01 05:53:58;;;;;;;7.87;7.12;;;;;;;23.72;75.03;98149.39;1700014;84;20952;-62
2022/07/01 05:56:25;;;;;;;11.10;7.67;;;;;;;23.83;75.08;98153.82;1720982;81;21241;-60
2022/07/01 05:58:54;;;;;;;11.57;7.45;;;;;;;23.93;74.65;98146.91;1722864;81;20953;-62
2022/07/01 06:01:20;;;;;;;7.33;6.62;;;;;;;24.01;74.19;98149.94;1723010;81;21078;-62
2022/07/01 06:03:46;;;;;;;8.45;6.47;;;;;;;24.11;73.66;98153.41;1720869;81;21067;-64
2022/07/01 06:06:20;;;;;;;7.45;6.45;;;;;;;24.20;73.25;98152.52;1734089;81;20984;-59
2022/07/01 06:08:47;;;;;;;6.80;6.12;;;;;;;24.29;72.51;98156.31;1733469;81;21880;-59
2022/07/01 06:11:17;;;;;;;7.80;6.78;;;;;;;24.39;72.22;98158.38;1733914;82;21046;-59
2022/07/01 06:13:44;;;;;;;7.30;6.00;;;;;;;24.55;71.41;98155.38;1739038;82;21065;-61
2022/07/01 06:16:11;;;;;;;8.70;5.87;;;;;;;24.60;70.92;98157.78;1711127;82;20942;-60
2022/07/01 06:18:40;;;;;;;8.78;6.20;;;;;;;24.60;70.92;98157.78;1781930;80;20983;-63
2022/07/01 06:21:06;;;;;;;7.05;5.70;;;;;;;24.69;69.89;98154.92;1790539;80;21107;-60
2022/07/01 06:23:33;;;;;;;8.13;5.80;;;;;;;24.69;69.89;98154.92;1789227;80;20974;-59
2022/07/01 06:25:59;;;;;;;7.85;5.62;;;;;;;24.75;69.87;98158.11;1788846;78;20914;-59
2022/07/01 06:28:36;;;;;;;6.30;5.80;;;;;;;24.81;69.77;98162.09;1782721;78;21668;-59
2022/07/01 06:31:09;;;;;;;7.75;5.87;;;;;;;24.87;69.81;98152.38;1732638;81;21124;-59
2022/07/01 06:33:36;;;;;;;8.23;6.25;;;;;;;24.94;69.29;98154.56;1738500;82;21157;-61
2022/07/01 06:36:03;;;;;;;6.25;5.65;;;;;;;25.01;69.40;98160.70;1725832;82;20975;-61
2022/07/01 06:38:30;;;;;;;7.75;5.50;;;;;;;25.07;69.31;98160.53;1687466;84;20884;-61
2022/07/01 06:43:44;;;;;;;6.65;5.78;;;;;;;25.17;68.14;98163.94;1725202;82;21028;-60
2022/07/01 06:46:16;;;;;;;8.58;5.85;;;;;;;25.20;67.81;98167.30;1722855;82;21677;-60
2022/07/01 06:48:43;;;;;;;8.50;5.33;;;;;;;25.25;67.87;98165.54;1729389;81;21470;-59
2022/07/01 06:51:10;;;;;;;6.10;5.03;;;;;;;25.30;67.21;98169.30;1729650;81;21102;-59
2022/07/01 06:53:37;;;;;;;9.15;5.30;;;;;;;25.36;67.05;98165.04;1735343;81;21008;-59
2022/07/01 06:56:04;;;;;;;6.97;4.90;;;;;;;25.42;67.38;98160.75;1725634;82;21062;-60
2022/07/01 06:58:30;;;;;;;7.58;4.83;;;;;;;25.50;67.17;98165.15;1734764;82;21444;-61
2022/07/01 07:00:57;;;;;;;6.05;4.70;;;;;;;25.59;67.20;98169.70;1705078;82;20947;-62
2022/07/01 07:03:23;;;;;;;5.65;4.70;;;;;;;25.71;67.29;98166.63;1780634;78;20990;-61
2022/07/01 07:05:52;;;;;;;7.35;4.85;;;;;;;25.84;67.08;98166.28;1781490;78;21098;-60
2022/07/01 07:08:20;;;;;;;10.08;4.97;;;;;;;25.94;66.71;98162.77;1690331;82;21061;-58
2022/07/01 07:10:47;;;;;;;7.83;4.95;;;;;;;26.04;66.02;98163.41;1737593;81;21180;-60
2022/07/01 07:13:16;;;;;;;8.75;5.00;;;;;;;26.12;66.00;98160.92;1733273;81;21560;-60
2022/07/01 07:15:43;;;;;;;8.40;4.85;;;;;;;26.20;64.78;98165.24;1730350;82;21518;-56
2022/07/01 07:18:10;;;;;;;6.83;4.75;;;;;;;26.26;63.99;98154.09;1708483;82;21485;-61
2022/07/01 07:20:38;;;;;;;9.30;5.03;;;;;;;26.32;63.98;98159.39;1736087;81;21470;-60
2022/07/01 07:23:05;;;;;;;10.35;4.33;;;;;;;26.40;63.08;98161.75;1727365;81;21131;-59
2022/07/01 07:25:32;;;;;;;7.25;4.30;;;;;;;26.42;62.57;98160.80;1718813;82;21040;-59
2022/07/01 07:27:58;;;;;;;10.03;4.60;;;;;;;26.47;62.39;98155.50;1701132;84;21535;-60
2022/07/01 07:30:25;;;;;;;6.35;4.05;;;;;;;26.53;62.51;98166.87;1700951;84;21120;-60
2022/07/01 07:32:52;;;;;;;7.70;4.47;;;;;;;26.56;61.61;98171.01;1740985;80;21117;-65
2022/07/01 07:35:18;;;;;;;11.85;4.33;;;;;;;26.61;61.70;98171.20;1752149;81;21289;-60
2022/07/01 07:37:45;;;;;;;5.40;4.20;;;;;;;26.67;61.87;98171.80;1750516;81;21112;-67
2022/07/01 07:40:14;;;;;;;11.63;4.25;;;;;;;26.77;61.74;98167.52;1748430;80;21116;-62
2022/07/01 07:42:40;;;;;;;5.60;3.80;;;;;;;26.85;60.82;98168.48;1730173;81;21041;-62
2022/07/01 07:45:11;;;;;;;6.95;4.20;;;;;;;26.90;60.22;98169.47;1744619;81;21033;-67
2022/07/01 07:47:38;;;;;;;7.75;3.85;;;;;;;26.95;60.21;98162.78;1743545;80;21316;-66
2022/07/01 07:50:06;;;;;;;7.37;4.10;;;;;;;27.00;60.37;98171.44;1715568;81;21034;-63
2022/07/01 07:52:33;;;;;;;10.18;4.10;;;;;;;27.09;60.44;98166.90;1739823;80;21106;-64
2022/07/01 07:54:59;;;;;;;8.15;3.95;;;;;;;27.16;59.81;98171.02;1741083;81;21030;-64
2022/07/01 07:57:26;;;;;;;7.60;3.52;;;;;;;27.22;59.27;98168.66;1742334;82;21119;-65
2022/07/01 07:59:52;;;;;;;5.70;3.75;;;;;;;27.30;59.17;98172.98;1740965;81;21220;-66
2022/07/01 08:02:19;;;;;;;7.60;4.12;;;;;;;27.35;58.75;98169.22;1741272;82;20942;-63
2022/07/01 08:04:45;;;;;;;5.72;3.95;;;;;;;27.42;58.42;98166.48;1738605;82;20969;-64
2022/07/01 08:07:11;;;;;;;7.65;3.92;;;;;;;27.43;57.89;98166.69;1748737;80;21040;-67
2022/07/01 08:09:41;;;;;;;8.73;3.92;;;;;;;27.45;57.91;98167.66;1739841;80;21080;-64
2022/07/01 08:12:08;;;;;;;5.90;3.95;;;;;;;27.48;58.11;98168.25;1748559;80;21891;-65
2022/07/01 08:14:35;;;;;;;8.05;3.80;;;;;;;27.53;58.10;98177.47;1757513;80;21610;-65
2022/07/01 08:17:04;;;;;;;8.35;3.77;;;;;;;27.58;58.16;98169.58;1755393;80;21582;-61
2022/07/01 08:19:31;;;;;;;6.62;4.03;;;;;;;27.65;58.82;98167.41;1718150;83;20914;-64
2022/07/01 08:21:57;;;;;;;4.30;3.80;;;;;;;27.75;57.63;98166.58;1753189;81;20927;-65
2022/07/01 08:24:24;;;;;;;4.87;3.77;;;;;;;27.83;57.73;98169.50;1752646;80;21166;-63
2022/07/01 08:26:51;;;;;;;5.95;4.17;;;;;;;27.90;56.28;98170.05;1747268;80;21426;-65
2022/07/01 08:29:18;;;;;;;7.08;3.70;;;;;;;27.95;56.10;98179.28;1747657;81;21461;-64
2022/07/01 08:31:45;;;;;;;4.90;3.58;;;;;;;27.98;56.22;98165.48;1703252;83;21023;-66
2022/07/01 08:34:11;;;;;;;5.03;3.77;;;;;;;28.01;56.21;98174.36;1742541;82;21146;-65
2022/07/01 08:36:38;;;;;;;4.47;3.50;;;;;;;28.06;56.19;98169.81;1744051;80;21119;-63
2022/07/01 08:39:05;;;;;;;4.37;3.98;;;;;;;28.11;56.70;98165.27;1772853;80;21090;-63
2022/07/01 08:41:35;;;;;;;5.67;3.55;;;;;;;28.16;56.95;98170.95;1742795;81;21006;-61
2022/07/01 08:44:11;;;;;;;5.53;3.52;;;;;;;28.17;56.67;98168.40;1743451;80;21480;-61
2022/07/01 08:46:40;;;;;;;6.58;3.40;;;;;;;28.21;56.73;98161.69;1745802;81;20919;-63
2022/07/01 08:49:06;;;;;;;5.08;3.55;;;;;;;28.30;56.61;98162.02;1721845;80;21190;-67
2022/07/01 08:51:34;;;;;;;3.60;3.30;;;;;;;28.39;56.14;98156.84;1741191;82;20891;-64
2022/07/01 08:54:02;;;;;;;7.53;3.30;;;;;;;28.50;56.19;98155.99;1781072;80;21489;-64
2022/07/01 08:56:40;;;;;;;5.12;3.58;;;;;;;28.58;55.81;98154.73;1779417;80;21022;-64
2022/07/01 08:59:10;;;;;;;16.48;4.05;;;;;;;28.65;54.92;98154.72;1779266;80;21071;-63
2022/07/01 09:01:37;;;;;;;7.33;3.52;;;;;;;28.71;54.78;98150.35;1744931;81;21112;-65
2022/07/01 09:04:25;;;;;;;4.00;3.12;;;;;;;28.77;53.65;98141.83;1741351;82;21094;-63
2022/07/01 09:07:10;;;;;;;4.17;3.17;;;;;;;28.82;53.90;98140.02;1780928;78;21533;-63
2022/07/01 09:09:42;;;;;;;5.90;3.22;;;;;;;28.91;53.30;98146.63;1780430;78;21529;-61
2022/07/01 09:12:09;;;;;;;4.62;3.65;;;;;;;29.03;51.94;98148.09;1779918;80;21066;-66
2022/07/01 09:14:36;;;;;;;4.90;3.30;;;;;;;29.10;51.32;98150.79;1743879;82;21065;-64
2022/07/01 09:17:05;;;;;;;8.70;3.52;;;;;;;29.09;51.50;98147.83;1743435;80;21042;-63
2022/07/01 09:19:37;;;;;;;4.97;3.40;;;;;;;29.00;51.48;98137.28;1778818;80;21125;-63
2022/07/01 09:22:07;;;;;;;6.78;3.47;;;;;;;29.00;51.94;98137.28;1781771;79;21065;-62
2022/07/01 09:24:39;;;;;;;4.00;3.55;;;;;;;29.06;50.96;98136.26;1773846;78;21011;-64
2022/07/01 09:27:13;;;;;;;7.10;3.50;;;;;;;29.12;50.94;98138.16;1781082;78;21136;-64
2022/07/01 09:29:49;;;;;;;6.72;3.52;;;;;;;29.19;50.90;98137.92;1746250;80;20961;-62
2022/07/01 09:32:21;;;;;;;3.62;3.33;;;;;;;29.22;50.98;98132.97;1742899;80;21580;-63
2022/07/01 09:34:49;;;;;;;6.15;3.40;;;;;;;29.29;51.40;98133.69;1742076;81;21079;-63
2022/07/01 09:37:22;;;;;;;5.92;3.05;;;;;;;29.41;50.38;98135.92;1712953;82;20939;-64
2022/07/01 09:39:56;;;;;;;7.90;3.33;;;;;;;29.50;49.83;98139.56;1734053;81;21710;-64
2022/07/01 09:42:32;;;;;;;;;;;;;;;29.61;50.11;98136.08;1733556;80;21022;-62
2022/07/01 09:45:10;;;;;;;8.15;3.40;;;;;;;29.71;48.87;98134.58;1736217;82;20451;-62
2022/07/01 09:47:38;;;;;;;6.00;3.27;;;;;;;29.81;48.16;98133.51;1731398;80;21130;-65
2022/07/01 09:50:15;;;;;;;5.53;3.35;;;;;;;29.86;48.25;98137.20;1729617;82;21153;-63
2022/07/01 09:52:56;;;;;;;8.30;3.20;;;;;;;29.89;47.54;98134.99;1739393;82;21041;-66
2022/07/01 09:55:39;;;;;;;5.85;3.22;;;;;;;29.96;47.85;98141.80;1716024;82;21208;-66
2022/07/01 09:58:13;;;;;;;4.67;3.17;;;;;;;30.04;47.65;98137.73;1747945;80;21008;-65
2022/07/01 10:00:42;;;;;;;3.87;3.15;;;;;;;30.16;47.48;98136.58;1748402;81;21009;-64
2022/07/01 10:03:12;;;;;;;3.35;3.02;;;;;;;30.21;47.00;98138.09;1707442;82;20983;-63
2022/07/01 10:05:54;;;;;;;7.83;3.00;;;;;;;30.24;45.65;98140.03;1731381;82;21852;-70
2022/07/01 10:08:36;;;;;;;3.92;3.05;;;;;;;30.27;45.66;98141.94;1749313;80;21079;-68
2022/07/01 10:11:42;;;;;;;3.92;3.00;;;;;;;30.36;46.44;98138.11;1747645;81;21045;-67
2022/07/01 10:14:14;;;;;;;4.00;2.83;;;;;;;30.48;46.06;98138.89;1727425;80;21394;-65
2022/07/01 10:16:50;;;;;;;6.70;3.15;;;;;;;30.57;45.71;98140.55;1753154;80;21033;-65
2022/07/01 10:19:29;;;;;;;2.95;2.72;;;;;;;30.62;45.29;98137.28;1748323;80;21094;-67
2022/07/01 10:22:01;;;;;;;5.53;2.92;;;;;;;30.62;43.83;98130.38;1720076;82;21042;-69
2022/07/01 10:24:28;;;;;;;2.75;2.55;;;;;;;30.57;44.10;98132.86;1744411;80;21089;-67
2022/07/01 10:27:00;;;;;;;6.12;3.00;;;;;;;30.58;45.44;98128.28;1774418;80;21017;-67
2022/07/01 10:29:34;;;;;;;4.60;2.72;;;;;;;30.71;44.78;98129.86;1753358;80;21118;-65
2022/07/01 10:32:12;;;;;;;5.08;2.80;;;;;;;30.82;44.02;98122.95;1742056;81;21665;-66
2022/07/01 10:34:41;;;;;;;5.37;3.47;;;;;;;30.82;43.91;98136.77;1736828;80;21633;-65
2022/07/01 10:37:10;;;;;;;3.60;3.08;;;;;;;30.81;43.31;98125.52;1740103;81;21645;-66
2022/07/01 10:40:02;;;;;;;6.65;3.12;;;;;;;30.70;43.21;98122.76;1753368;80;21050;-67
2022/07/01 10:42:38;;;;;;;3.50;3.10;;;;;;;30.63;43.45;98118.13;1709934;83;21078;-67
2022/07/01 10:45:12;;;;;;;5.55;3.08;;;;;;;30.70;43.32;98119.40;1744373;82;21081;-64
2022/07/01 10:47:39;;;;;;;3.92;2.87;;;;;;;30.76;43.30;98120.47;1741007;82;20987;-65
2022/07/01 10:50:12;;;;;;;4.70;2.70;;;;;;;30.82;43.94;98120.78;1708982;83;21332;-67
2022/07/01 10:52:39;;;;;;;3.35;2.60;;;;;;;30.89;43.07;98120.69;1734918;82;21160;-69
2022/07/01 10:55:08;;;;;;;4.67;2.80;;;;;;;30.96;43.86;98121.36;1736599;81;21061;-66
2022/07/01 10:57:39;;;;;;;3.52;2.72;;;;;;;31.04;43.00;98121.39;1742040;80;21668;-70
2022/07/01 11:00:11;;;;;;;7.62;3.17;;;;;;;31.09;42.15;98112.61;1742715;80;21110;-69
2022/07/01 11:02:40;;;;;;;2.90;2.70;;;;;;;31.11;41.99;98114.34;1710667;83;21093;-69
2022/07/01 11:05:12;;;;;;;4.42;2.90;;;;;;;31.13;41.65;98111.18;1742007;80;21516;-68
2022/07/01 11:07:45;;;;;;;6.50;2.80;;;;;;;31.18;41.96;98116.83;1706438;81;21117;-66
2022/07/01 11:10:15;;;;;;;3.62;2.58;;;;;;;31.26;41.37;98121.00;1697833;83;22038;-66
2022/07/01 11:12:49;;;;;;;4.67;2.77;;;;;;;31.28;41.10;98100.01;1729008;82;21506;-63
2022/07/01 11:15:15;;;;;;;4.83;2.90;;;;;;;31.27;40.88;98104.59;1728627;80;21060;-66
2022/07/01 11:17:46;;;;;;;3.70;2.62;;;;;;;31.26;40.78;98096.10;1726924;82;21090;-67
2022/07/01 11:20:12;;;;;;;2.95;2.65;;;;;;;31.27;41.06;98099.84;1730862;80;21466;-65
2022/07/01 11:22:39;;;;;;;3.80;2.77;;;;;;;31.26;40.49;98097.48;1734411;80;21171;-65
2022/07/01 11:25:08;;;;;;;4.83;2.65;;;;;;;31.26;41.40;98087.80;1708414;82;20963;-69
2022/07/01 11:27:36;;;;;;;3.35;2.60;;;;;;;31.37;40.88;98098.08;1732992;82;21568;-66
2022/07/01 11:30:12;;;;;;;2.95;2.62;;;;;;;31.48;40.59;98094.52;1740112;80;20939;-68
2022/07/01 11:32:43;;;;;;;4.45;2.65;;;;;;;31.58;40.30;98093.53;1743330;80;21071;-65
2022/07/01 11:41:02;;;;;;;14.60;3.40;;;;;;;31.93;38.69;98087.23;1721800;82;20966;-62
2022/07/01 11:43:38;;;;;;;13.88;3.40;;;;;;;32.06;39.63;98092.30;1737517;82;20981;-63
2022/07/01 11:46:06;;;;;;;4.25;2.62;;;;;;;32.28;39.13;98079.53;1736950;82;21532;-61
2022/07/01 11:48:43;;;;;;;4.12;2.40;;;;;;;32.55;37.66;98071.61;1718339;82;21325;-65
2022/07/01 11:51:13;;;;;;;3.42;2.70;;;;;;;32.66;38.40;98074.88;1721680;82;20983;-62
2022/07/01 11:53:48;;;;;;;3.60;2.35;;;;;;;32.82;38.00;98070.70;1767230;80;21402;-65
2022/07/01 11:56:15;;;;;;;2.67;2.10;;;;;;;33.01;36.91;98072.00;1746546;82;21057;-61
2022/07/01 11:58:50;;;;;;;3.33;2.12;;;;;;;33.19;36.67;98074.28;1718890;83;21031;-60